createdAt,value
2023-04-07T00:00:05.997Z,8.77
2023-04-07T00:02:33.243Z,8.58
2023-04-07T00:05:03.201Z,8.73
2023-04-07T00:07:29.908Z,8.52
2023-04-07T00:09:56.649Z,8.59
2023-04-07T00:12:25.571Z,8.65
2023-04-07T00:14:54.690Z,8.50
2023-04-07T00:17:21.381Z,8.63
2023-04-07T00:19:48.432Z,8.59
2023-04-07T00:22:15.576Z,8.58
2023-04-07T00:24:44.697Z,8.56
2023-04-07T00:27:11.329Z,8.44
2023-04-07T00:29:43.879Z,8.51
2023-04-07T00:32:10.586Z,8.40
2023-04-07T00:34:37.419Z,8.49
2023-04-07T00:37:06.454Z,8.41
2023-04-07T00:39:33.289Z,8.29
2023-04-07T00:42:00.003Z,8.37
2023-04-07T00:44:27.120Z,8.29
2023-04-07T00:46:55.972Z,8.28
2023-04-07T00:49:22.641Z,8.26
2023-04-07T00:51:49.357Z,8.16
2023-04-07T00:54:18.926Z,8.20
2023-04-07T00:56:45.832Z,8.17
2023-04-07T00:59:12.565Z,8.16
2023-04-07T01:01:50.703Z,8.13
2023-04-07T01:04:28.685Z,8.10
2023-04-07T01:07:01.112Z,8.08
2023-04-07T01:09:37.445Z,7.87
2023-04-07T01:12:08.217Z,8.06
2023-04-07T01:14:46.240Z,8.03
2023-04-07T01:17:15.768Z,8.00
2023-04-07T01:20:12.650Z,8.00
2023-04-07T01:22:47.349Z,7.97
2023-04-07T01:25:22.295Z,7.95
2023-04-07T01:28:02.344Z,7.94
2023-04-07T01:30:33.240Z,7.88
2023-04-07T01:33:04.803Z,7.79
2023-04-07T01:35:36.062Z,7.89
2023-04-07T01:38:07.704Z,7.88
2023-04-07T01:40:35.610Z,7.86
2023-04-07T01:43:04.970Z,7.83
2023-04-07T01:45:37.120Z,7.82
2023-04-07T01:48:07.538Z,7.62
2023-04-07T01:50:35.187Z,7.82
2023-04-07T01:53:03.917Z,7.81
2023-04-07T01:55:31.362Z,7.81
2023-04-07T01:57:57.949Z,7.77
2023-04-07T02:00:26.890Z,7.69
2023-04-07T02:02:59.859Z,7.78
2023-04-07T02:05:32.890Z,7.66
2023-04-07T02:08:04.122Z,7.52
2023-04-07T02:10:35.008Z,7.76
2023-04-07T02:13:05.471Z,7.72
2023-04-07T02:15:36.124Z,7.60
2023-04-07T02:18:04.797Z,7.68
2023-04-07T02:20:31.896Z,7.67
2023-04-07T02:22:58.716Z,7.59
2023-04-07T02:25:32.552Z,7.62
2023-04-07T02:28:00.852Z,7.59
2023-04-07T02:30:30.107Z,7.58
2023-04-07T02:32:57.118Z,7.47
2023-04-07T02:35:24.229Z,7.53
2023-04-07T02:37:51.435Z,7.52
2023-04-07T02:40:18.200Z,7.41
2023-04-07T02:42:44.938Z,7.30
2023-04-07T02:45:12.035Z,7.43
2023-04-07T02:47:39.436Z,7.40
2023-04-07T02:50:09.003Z,7.39
2023-04-07T02:52:38.095Z,7.34
2023-04-07T02:55:05.475Z,7.36
2023-04-07T02:57:32.163Z,7.37
2023-04-07T02:59:58.815Z,7.15
2023-04-07T03:02:27.821Z,7.34
2023-04-07T03:04:54.444Z,7.31
2023-04-07T03:07:23.303Z,7.31
2023-04-07T03:09:50.215Z,7.30
2023-04-07T03:12:17.085Z,7.28
2023-04-07T03:14:46.325Z,7.26
2023-04-07T03:17:13.000Z,7.18
2023-04-07T03:19:42.159Z,7.25
2023-04-07T03:22:08.742Z,7.23
2023-04-07T03:24:39.624Z,7.17
2023-04-07T03:27:08.699Z,7.16
2023-04-07T03:29:35.324Z,7.08
2023-04-07T03:32:01.947Z,7.06
2023-04-07T03:34:28.533Z,7.01
2023-04-07T03:36:57.469Z,6.98
2023-04-07T03:39:24.102Z,6.92
2023-04-07T03:41:51.797Z,6.92
2023-04-07T03:44:18.372Z,6.89
2023-04-07T03:46:45.783Z,6.86
2023-04-07T03:49:12.481Z,6.82
2023-04-07T03:51:39.790Z,6.82
2023-04-07T03:54:06.445Z,6.80
2023-04-07T03:56:33.333Z,6.75
2023-04-07T03:58:59.923Z,6.71
2023-04-07T04:01:31.815Z,6.65
2023-04-07T04:03:59.125Z,6.68
2023-04-07T04:06:27.244Z,6.66
2023-04-07T04:08:53.892Z,6.66
2023-04-07T04:11:20.612Z,6.60
2023-04-07T04:13:49.665Z,6.61
2023-04-07T04:16:18.690Z,6.60
2023-04-07T04:18:45.502Z,6.55
2023-04-07T04:21:12.295Z,6.56
2023-04-07T04:23:38.883Z,6.42
2023-04-07T04:26:05.528Z,6.43
2023-04-07T04:28:34.545Z,6.54
2023-04-07T04:31:01.217Z,6.51
2023-04-07T04:33:27.854Z,6.51
2023-04-07T04:35:59.245Z,6.52
2023-04-07T04:38:28.549Z,6.52
2023-04-07T04:40:57.664Z,6.52
2023-04-07T04:43:24.286Z,6.48
2023-04-07T04:45:51.115Z,6.45
2023-04-07T04:48:17.801Z,6.48
2023-04-07T04:50:44.840Z,6.48
2023-04-07T04:53:13.806Z,6.45
2023-04-07T04:55:41.056Z,6.42
2023-04-07T04:58:07.669Z,6.16
2023-04-07T05:00:34.440Z,6.41
2023-04-07T05:03:03.721Z,6.39
2023-04-07T05:05:30.600Z,6.37
2023-04-07T05:08:01.804Z,6.36
2023-04-07T05:10:28.470Z,6.35
2023-04-07T05:12:55.042Z,6.22
2023-04-07T05:15:22.533Z,6.31
2023-04-07T05:17:50.787Z,6.31
2023-04-07T05:20:19.731Z,6.26
2023-04-07T05:22:46.319Z,6.30
2023-04-07T05:25:13.044Z,6.30
2023-04-07T05:27:42.101Z,6.10
2023-04-07T05:30:09.164Z,6.27
2023-04-07T05:32:35.859Z,6.27
2023-04-07T05:35:02.539Z,6.25
2023-04-07T05:37:29.210Z,6.15
2023-04-07T05:39:59.106Z,6.10
2023-04-07T05:42:25.694Z,6.23
2023-04-07T05:44:52.407Z,6.24
2023-04-07T05:47:19.029Z,6.22
2023-04-07T05:49:48.559Z,6.24
2023-04-07T05:52:15.451Z,6.13
2023-04-07T05:54:42.804Z,6.24
2023-04-07T05:57:09.651Z,6.22
2023-04-07T05:59:41.423Z,6.11
2023-04-07T06:02:10.200Z,6.25
2023-04-07T06:04:37.142Z,6.27
2023-04-07T06:07:04.370Z,6.25
2023-04-07T06:09:33.433Z,6.22
2023-04-07T06:12:01.380Z,6.28
2023-04-07T06:14:30.837Z,6.22
2023-04-07T06:16:57.618Z,6.13
2023-04-07T06:19:24.224Z,6.22
2023-04-07T06:21:53.094Z,6.20
2023-04-07T06:24:25.334Z,6.43
2023-04-07T06:26:57.025Z,6.45
2023-04-07T06:29:23.701Z,6.48
2023-04-07T06:31:50.401Z,6.57
2023-04-07T06:34:19.607Z,6.67
2023-04-07T06:36:48.925Z,6.57
2023-04-07T06:39:15.820Z,6.76
2023-04-07T06:41:43.594Z,6.81
2023-04-07T06:44:16.262Z,6.93
2023-04-07T06:46:44.395Z,7.04
2023-04-07T06:49:12.127Z,7.13
2023-04-07T06:51:38.910Z,7.05
2023-04-07T06:54:07.780Z,7.24
2023-04-07T06:56:39.253Z,7.39
2023-04-07T06:59:05.861Z,7.50
2023-04-07T07:01:33.614Z,7.61
2023-04-07T07:04:02.929Z,7.70
2023-04-07T07:06:29.737Z,7.68
2023-04-07T07:08:58.816Z,7.84
2023-04-07T07:11:25.794Z,7.99
2023-04-07T07:13:55.084Z,8.11
2023-04-07T07:16:24.075Z,8.25
2023-04-07T07:18:51.697Z,8.43
2023-04-07T07:21:22.063Z,8.66
2023-04-07T07:23:51.002Z,9.19
2023-04-07T07:26:20.949Z,10.09
2023-04-07T07:28:52.496Z,11.17
2023-04-07T07:31:21.505Z,12.19
2023-04-07T07:33:51.902Z,13.27
2023-04-07T07:36:18.754Z,14.24
2023-04-07T07:38:45.487Z,15.26
2023-04-07T07:41:14.429Z,16.23
2023-04-07T07:43:41.292Z,16.99
2023-04-07T07:46:07.979Z,17.88
2023-04-07T07:48:34.765Z,18.43
2023-04-07T07:51:04.148Z,19.09
2023-04-07T07:53:30.989Z,19.77
2023-04-07T07:55:57.916Z,20.36
2023-04-07T07:58:24.609Z,20.94
2023-04-07T08:00:51.378Z,21.40
2023-04-07T08:03:19.905Z,21.94
2023-04-07T08:05:48.554Z,22.41
2023-04-07T08:08:17.334Z,22.95
2023-04-07T08:10:44.324Z,23.31
2023-04-07T08:13:11.183Z,23.55
2023-04-07T08:15:40.705Z,23.85
2023-04-07T08:18:07.632Z,24.27
2023-04-07T08:20:34.459Z,24.78
2023-04-07T08:23:03.638Z,25.15
2023-04-07T08:25:32.561Z,25.32
2023-04-07T08:27:59.225Z,25.85
2023-04-07T08:30:28.111Z,26.10
2023-04-07T08:32:55.096Z,26.39
2023-04-07T08:35:24.134Z,26.54
2023-04-07T08:37:55.468Z,26.31
2023-04-07T08:40:22.136Z,26.47
2023-04-07T08:42:49.431Z,26.52
2023-04-07T08:45:17.630Z,26.56
2023-04-07T08:47:46.515Z,26.74
2023-04-07T08:50:20.070Z,26.79
2023-04-07T08:52:50.772Z,27.01
2023-04-07T08:55:17.665Z,27.11
2023-04-07T08:57:44.787Z,27.16
2023-04-07T09:00:15.199Z,27.19
2023-04-07T09:02:45.896Z,27.10
2023-04-07T09:05:14.588Z,26.98
2023-04-07T09:07:43.386Z,26.77
2023-04-07T09:10:10.788Z,26.84
2023-04-07T09:12:38.408Z,26.91
2023-04-07T09:15:08.917Z,26.71
2023-04-07T09:17:36.151Z,26.83
2023-04-07T09:20:03.401Z,26.88
2023-04-07T09:22:40.310Z,26.71
2023-04-07T09:25:17.209Z,26.64
2023-04-07T09:28:01.513Z,26.66
2023-04-07T09:30:35.000Z,26.44
2023-04-07T09:33:02.389Z,26.14
2023-04-07T09:35:29.908Z,26.08
2023-04-07T09:38:03.521Z,25.96
2023-04-07T09:40:30.545Z,25.76
2023-04-07T09:42:58.686Z,25.56
2023-04-07T09:45:35.012Z,25.52
2023-04-07T09:48:07.850Z,25.59
2023-04-07T09:50:36.914Z,25.36
2023-04-07T09:53:04.981Z,25.10
2023-04-07T09:55:32.059Z,24.49
2023-04-07T09:57:59.551Z,23.68
2023-04-07T10:00:26.617Z,23.32
2023-04-07T10:02:56.700Z,23.07
2023-04-07T10:05:24.092Z,22.94
2023-04-07T10:07:56.487Z,22.74
2023-04-07T10:10:26.633Z,22.53
2023-04-07T10:12:54.935Z,22.51
2023-04-07T10:15:22.786Z,22.39
2023-04-07T10:17:50.037Z,21.87
2023-04-07T10:20:21.057Z,21.70
2023-04-07T10:22:53.994Z,21.23
2023-04-07T10:25:24.458Z,21.17
2023-04-07T10:28:04.679Z,20.86
2023-04-07T10:30:33.658Z,20.38
2023-04-07T10:33:00.529Z,20.13
2023-04-07T10:35:29.901Z,20.16
2023-04-07T10:38:13.831Z,20.08
2023-04-07T10:40:42.926Z,20.09
2023-04-07T10:43:11.492Z,20.00
2023-04-07T10:45:47.257Z,19.76
2023-04-07T10:48:18.739Z,19.53
2023-04-07T10:50:46.882Z,19.70
2023-04-07T10:53:15.301Z,20.01
2023-04-07T10:55:45.337Z,20.37
2023-04-07T10:58:29.205Z,20.33
2023-04-07T11:01:08.375Z,20.71
2023-04-07T11:03:42.578Z,20.93
2023-04-07T11:06:11.378Z,21.36
2023-04-07T11:08:43.070Z,21.48
2023-04-07T11:11:11.703Z,21.24
2023-04-07T11:13:49.780Z,20.89
2023-04-07T11:16:19.466Z,20.46
2023-04-07T11:18:47.959Z,20.09
2023-04-07T11:21:19.379Z,19.56
2023-04-07T11:23:48.005Z,19.72
2023-04-07T11:26:15.313Z,19.99
2023-04-07T11:28:51.491Z,20.37
2023-04-07T11:31:31.344Z,20.76
2023-04-07T11:34:04.797Z,21.00
2023-04-07T11:36:40.306Z,21.37
2023-04-07T11:39:19.364Z,21.69
2023-04-07T11:41:50.190Z,22.05
2023-04-07T11:44:16.971Z,22.23
2023-04-07T11:46:53.916Z,22.10
2023-04-07T11:49:20.781Z,21.65
2023-04-07T11:51:47.612Z,21.02
2023-04-07T11:54:14.439Z,20.63
2023-04-07T11:56:48.101Z,20.14
2023-04-07T11:59:23.484Z,19.68
2023-04-07T12:01:51.234Z,19.45
2023-04-07T12:04:18.969Z,19.47
2023-04-07T12:06:50.203Z,19.61
2023-04-07T12:09:32.610Z,19.56
2023-04-07T12:11:59.956Z,19.76
2023-04-07T12:14:29.645Z,19.96
2023-04-07T12:16:57.788Z,20.08
2023-04-07T12:19:28.494Z,20.10
2023-04-07T12:21:56.168Z,19.99
2023-04-07T12:24:24.011Z,19.81
2023-04-07T12:26:50.916Z,19.62
2023-04-07T12:29:20.176Z,19.30
2023-04-07T12:31:49.381Z,19.03
2023-04-07T12:34:17.342Z,18.95
2023-04-07T12:36:46.230Z,19.00
2023-04-07T12:39:15.784Z,19.07
2023-04-07T12:41:42.626Z,19.02
2023-04-07T12:44:09.884Z,19.01
2023-04-07T12:46:38.943Z,19.21
2023-04-07T12:49:05.903Z,19.17
2023-04-07T12:51:35.978Z,19.12
2023-04-07T12:54:02.654Z,19.07
2023-04-07T12:56:29.481Z,18.84
2023-04-07T12:58:56.269Z,18.52
2023-04-07T13:01:23.014Z,18.23
2023-04-07T13:03:52.308Z,18.06
2023-04-07T13:06:21.364Z,17.96
2023-04-07T13:08:50.543Z,17.78
2023-04-07T13:11:17.149Z,17.50
2023-04-07T13:13:46.250Z,17.09
2023-04-07T13:16:13.039Z,17.20
2023-04-07T13:18:42.407Z,17.18
2023-04-07T13:21:42.805Z,17.18
2023-04-07T13:23:57.601Z,17.08
2023-04-07T13:26:26.698Z,17.19
2023-04-07T13:28:53.764Z,17.39
2023-04-07T13:31:23.890Z,17.49
2023-04-07T13:33:50.874Z,17.65
2023-04-07T13:36:17.756Z,17.66
2023-04-07T13:38:44.436Z,17.69
2023-04-07T13:41:15.824Z,17.79
2023-04-07T13:43:42.508Z,17.75
2023-04-07T13:46:27.057Z,17.51
2023-04-07T13:48:55.661Z,17.47
2023-04-07T13:51:22.948Z,17.45
2023-04-07T13:53:52.307Z,17.40
2023-04-07T13:56:19.188Z,17.23
2023-04-07T13:58:46.186Z,17.46
2023-04-07T14:01:15.535Z,17.30
2023-04-07T14:03:43.090Z,17.32
2023-04-07T14:06:09.820Z,17.33
2023-04-07T14:08:36.591Z,17.32
2023-04-07T14:11:05.599Z,17.38
2023-04-07T14:13:32.354Z,17.26
2023-04-07T14:16:01.936Z,17.10
2023-04-07T14:18:28.616Z,16.93
2023-04-07T14:20:55.253Z,16.85
2023-04-07T14:23:33.968Z,16.77
2023-04-07T14:26:04.093Z,16.89
2023-04-07T14:28:30.897Z,16.82
2023-04-07T14:30:59.825Z,16.42
2023-04-07T14:33:26.751Z,16.74
2023-04-07T14:35:56.143Z,16.68
2023-04-07T14:38:25.770Z,16.52
2023-04-07T14:40:55.272Z,16.46
2023-04-07T14:43:21.954Z,16.38
2023-04-07T14:45:48.606Z,16.23
2023-04-07T14:48:15.243Z,16.18
2023-04-07T14:50:41.886Z,16.01
2023-04-07T14:53:08.727Z,15.80
2023-04-07T14:55:36.280Z,15.58
2023-04-07T14:58:08.258Z,15.61
2023-04-07T15:00:35.455Z,15.46
2023-04-07T15:03:02.194Z,15.63
2023-04-07T15:05:29.997Z,15.73
2023-04-07T15:07:57.189Z,15.73
2023-04-07T15:10:24.082Z,15.56
2023-04-07T15:12:53.010Z,15.30
2023-04-07T15:15:22.186Z,15.23
2023-04-07T15:17:48.852Z,15.08
2023-04-07T15:20:15.712Z,14.96
2023-04-07T15:22:42.315Z,14.80
2023-04-07T15:25:09.127Z,14.71
2023-04-07T15:27:36.013Z,14.71
2023-04-07T15:30:02.736Z,14.66
2023-04-07T15:32:31.983Z,14.59
2023-04-07T15:35:01.730Z,14.63
2023-04-07T15:37:28.465Z,14.67
2023-04-07T15:39:57.553Z,14.52
2023-04-07T15:42:24.281Z,14.69
2023-04-07T15:44:53.269Z,14.63
2023-04-07T15:47:19.894Z,14.63
2023-04-07T15:49:46.715Z,14.64
2023-04-07T15:52:14.074Z,14.67
2023-04-07T15:54:40.854Z,14.54
2023-04-07T15:57:07.702Z,14.70
2023-04-07T15:59:36.880Z,14.82
2023-04-07T16:02:03.749Z,14.82
2023-04-07T16:04:30.559Z,14.86
2023-04-07T16:07:02.017Z,14.89
2023-04-07T16:09:28.714Z,14.90
2023-04-07T16:11:55.730Z,14.93
2023-04-07T16:14:27.075Z,14.96
2023-04-07T16:16:58.624Z,15.00
2023-04-07T16:19:28.905Z,14.99
2023-04-07T16:21:57.744Z,15.02
2023-04-07T16:24:26.888Z,15.09
2023-04-07T16:26:55.746Z,15.12
2023-04-07T16:29:25.281Z,15.12
2023-04-07T16:31:54.335Z,15.01
2023-04-07T16:34:23.455Z,15.09
2023-04-07T16:36:54.551Z,15.04
2023-04-07T16:39:23.479Z,15.03
2023-04-07T16:41:53.775Z,15.15
2023-04-07T16:44:22.201Z,15.21
2023-04-07T16:46:52.939Z,15.15
2023-04-07T16:49:19.549Z,15.21
2023-04-07T16:51:51.047Z,15.15
2023-04-07T16:54:17.648Z,15.03
2023-04-07T16:56:44.252Z,15.15
2023-04-07T16:59:15.857Z,15.05
2023-04-07T17:01:43.987Z,15.07
2023-04-07T17:04:10.928Z,15.13
2023-04-07T17:06:40.021Z,15.15
2023-04-07T17:09:12.194Z,15.18
2023-04-07T17:11:41.187Z,15.13
2023-04-07T17:14:08.019Z,15.16
2023-04-07T17:16:34.614Z,14.93
2023-04-07T17:19:03.667Z,14.97
2023-04-07T17:21:32.565Z,14.87
2023-04-07T17:23:59.289Z,14.89
2023-04-07T17:26:28.231Z,14.95
2023-04-07T17:28:57.516Z,14.74
2023-04-07T17:31:26.694Z,14.86
2023-04-07T17:33:53.370Z,14.73
2023-04-07T17:36:20.110Z,14.79
2023-04-07T17:38:49.340Z,14.69
2023-04-07T17:41:16.743Z,14.62
2023-04-07T17:43:45.870Z,14.80
2023-04-07T17:46:12.653Z,14.62
2023-04-07T17:48:41.842Z,14.74
2023-04-07T17:51:08.749Z,14.71
2023-04-07T17:53:35.449Z,14.61
2023-04-07T17:56:04.290Z,14.61
2023-04-07T17:58:33.604Z,14.60
2023-04-07T18:01:00.438Z,14.45
2023-04-07T18:03:29.858Z,14.54
2023-04-07T18:05:59.073Z,14.41
2023-04-07T18:08:29.917Z,14.27
2023-04-07T18:11:01.704Z,14.14
2023-04-07T18:13:28.382Z,14.37
2023-04-07T18:15:55.150Z,14.29
2023-04-07T18:18:21.881Z,14.21
2023-04-07T18:20:52.096Z,14.23
2023-04-07T18:23:18.782Z,14.16
2023-04-07T18:25:45.620Z,14.01
2023-04-07T18:28:12.226Z,13.95
2023-04-07T18:30:42.113Z,13.84
2023-04-07T18:33:13.089Z,13.90
2023-04-07T18:35:42.544Z,13.91
2023-04-07T18:38:09.230Z,13.61
2023-04-07T18:40:36.006Z,13.59
2023-04-07T18:43:02.929Z,13.68
2023-04-07T18:45:31.878Z,13.56
2023-04-07T18:47:58.619Z,13.55
2023-04-07T18:50:27.502Z,13.34
2023-04-07T18:52:59.015Z,13.30
2023-04-07T18:55:25.746Z,13.37
2023-04-07T18:57:52.537Z,13.25
2023-04-07T19:00:21.429Z,13.18
2023-04-07T19:02:52.942Z,13.07
2023-04-07T19:05:23.072Z,13.03
2023-04-07T19:07:51.939Z,12.95
2023-04-07T19:10:18.818Z,12.86
2023-04-07T19:12:47.533Z,12.82
2023-04-07T19:15:15.132Z,12.68
2023-04-07T19:17:42.031Z,12.47
2023-04-07T19:20:09.390Z,12.60
2023-04-07T19:22:36.390Z,12.36
2023-04-07T19:25:03.084Z,12.44
2023-04-07T19:27:29.848Z,12.38
2023-04-07T19:29:58.908Z,12.24
2023-04-07T19:32:25.557Z,12.27
2023-04-07T19:34:52.241Z,12.12
2023-04-07T19:37:21.196Z,11.97
2023-04-07T19:40:01.511Z,12.07
2023-04-07T19:42:29.480Z,12.00
2023-04-07T19:44:58.424Z,11.95
2023-04-07T19:47:25.357Z,11.74
2023-04-07T19:49:52.039Z,11.88
2023-04-07T19:52:18.790Z,11.74
2023-04-07T19:54:45.594Z,11.71
2023-04-07T19:57:13.628Z,11.73
2023-04-07T19:59:42.988Z,11.68
2023-04-07T20:02:09.634Z,11.57
2023-04-07T20:04:36.361Z,11.64
2023-04-07T20:07:03.057Z,11.58
2023-04-07T20:09:29.848Z,11.56
2023-04-07T20:11:57.588Z,11.53
2023-04-07T20:14:26.629Z,11.48
2023-04-07T20:16:55.829Z,11.50
2023-04-07T20:19:23.000Z,11.48
2023-04-07T20:21:51.835Z,11.44
2023-04-07T20:24:19.015Z,11.46
2023-04-07T20:26:46.307Z,11.35
2023-04-07T20:29:17.439Z,11.31
2023-04-07T20:31:44.438Z,11.33
2023-04-07T20:34:11.091Z,11.28
2023-04-07T20:36:37.744Z,11.15
2023-04-07T20:39:04.525Z,11.25
2023-04-07T20:41:31.153Z,11.22
2023-04-07T20:43:58.657Z,11.23
2023-04-07T20:46:25.396Z,11.22
2023-04-07T20:48:52.819Z,11.21
2023-04-07T20:51:19.491Z,11.22
2023-04-07T20:53:48.391Z,11.18
2023-04-07T20:56:17.506Z,11.03
2023-04-07T20:58:44.181Z,10.91
2023-04-07T21:01:10.950Z,10.80
2023-04-07T21:03:40.043Z,10.74
2023-04-07T21:06:07.161Z,10.72
2023-04-07T21:08:36.209Z,10.69
2023-04-07T21:11:02.876Z,10.73
2023-04-07T21:13:29.538Z,10.75
2023-04-07T21:15:57.637Z,10.75
2023-04-07T21:18:24.529Z,10.71
2023-04-07T21:20:51.505Z,10.67
2023-04-07T21:23:18.176Z,10.79
2023-04-07T21:25:47.653Z,10.71
2023-04-07T21:28:16.856Z,10.80
2023-04-07T21:30:43.590Z,10.86
2023-04-07T21:33:11.176Z,10.88
2023-04-07T21:35:38.012Z,10.88
2023-04-07T21:38:04.622Z,10.79
2023-04-07T21:40:31.473Z,10.91
2023-04-07T21:42:58.171Z,10.89
2023-04-07T21:45:24.867Z,10.80
2023-04-07T21:47:51.764Z,10.58
2023-04-07T21:50:18.890Z,10.59
2023-04-07T21:52:45.626Z,10.64
2023-04-07T21:55:12.690Z,10.70
2023-04-07T21:57:41.487Z,10.68
2023-04-07T22:00:09.649Z,10.53
2023-04-07T22:02:38.536Z,10.67
2023-04-07T22:05:06.314Z,10.74
2023-04-07T22:07:35.230Z,10.40
2023-04-07T22:10:05.187Z,10.68
2023-04-07T22:12:31.987Z,10.75
2023-04-07T22:14:58.616Z,10.77
2023-04-07T22:17:25.743Z,10.78
2023-04-07T22:19:52.558Z,10.73
2023-04-07T22:22:21.524Z,10.64
2023-04-07T22:24:48.224Z,10.69
2023-04-07T22:27:14.959Z,10.67
2023-04-07T22:29:41.616Z,10.66
2023-04-07T22:32:10.456Z,10.55
2023-04-07T22:34:37.100Z,10.61
2023-04-07T22:37:03.791Z,10.63
2023-04-07T22:39:32.735Z,10.52
2023-04-07T22:42:02.760Z,10.61
2023-04-07T22:44:29.535Z,10.59
2023-04-07T22:46:56.532Z,10.52
2023-04-07T22:49:23.387Z,10.55
2023-04-07T22:51:50.718Z,10.49
2023-04-07T22:54:18.396Z,10.49
2023-04-07T22:56:45.387Z,10.40
2023-04-07T22:59:12.376Z,10.18
2023-04-07T23:01:41.848Z,10.45
2023-04-07T23:04:08.813Z,10.39
2023-04-07T23:06:35.704Z,10.39
2023-04-07T23:09:04.818Z,10.13
2023-04-07T23:11:31.400Z,10.11
2023-04-07T23:14:00.252Z,10.19
2023-04-07T23:16:27.004Z,10.15
2023-04-07T23:18:54.126Z,10.12
2023-04-07T23:21:26.428Z,10.10
2023-04-07T23:23:54.274Z,10.11
2023-04-07T23:26:21.029Z,10.09
2023-04-07T23:28:48.756Z,10.07
2023-04-07T23:31:16.392Z,10.03
2023-04-07T23:33:45.482Z,9.98
2023-04-07T23:36:12.405Z,9.85
2023-04-07T23:38:40.889Z,9.76
2023-04-07T23:41:08.051Z,9.93
2023-04-07T23:43:35.493Z,9.91
2023-04-07T23:46:05.767Z,9.91
2023-04-07T23:48:32.737Z,9.86
2023-04-07T23:51:01.839Z,9.80
2023-04-07T23:53:28.797Z,9.76
2023-04-07T23:55:55.912Z,9.76
2023-04-07T23:58:25.474Z,9.74
